Time;durP1;ratioP1;P1;durP2;ratioP2;P2;SDS_P1;SDS_P2;PMS_P1;PMS_P2;Temp;Humidity;BMP_temperature;BMP_pressure;BME280_temperature;BME280_humidity;BME280_pressure;Samples;Min_cycle;Max_cycle;Signal;HPM_P1;HPM_P2
2023/01/18 00:00:36;;;;;;;9.50;7.30;;;3.40;99.90;;;;;;5042441;28;20190;-61
2023/01/18 00:03:03;;;;;;;5.68;5.10;;;3.70;99.90;;;;;;5043068;28;20189;-61
2023/01/18 00:05:29;;;;;;;6.55;5.70;;;3.50;99.90;;;;;;5048477;28;20216;-61
2023/01/18 00:07:55;;;;;;;6.60;5.90;;;3.60;99.90;;;;;;5043616;28;20207;-61
2023/01/18 00:10:21;;;;;;;7.53;6.43;;;4.00;99.90;;;;;;5048647;28;20638;-61
2023/01/18 00:12:47;;;;;;;6.38;5.40;;;3.20;99.90;;;;;;5046944;28;20480;-61
2023/01/18 00:15:13;;;;;;;7.82;6.30;;;2.70;99.90;;;;;;5046244;28;20781;-61
2023/01/18 00:17:50;;;;;;;7.73;6.80;;;3.20;99.90;;;;;;5041751;28;20265;-61
2023/01/18 00:20:17;;;;;;;9.52;7.22;;;3.40;99.90;;;;;;5048620;28;20453;-60
2023/01/18 00:22:43;;;;;;;8.30;6.93;;;3.10;99.90;;;;;;5049203;28;20194;-60
2023/01/18 00:25:09;;;;;;;8.47;7.57;;;3.40;99.90;;;;;;5043105;28;20693;-61
2023/01/18 00:27:39;;;;;;;9.00;6.90;;;3.80;99.90;;;;;;5043370;28;20195;-60
2023/01/18 00:30:06;;;;;;;9.82;8.23;;;2.60;99.90;;;;;;5044713;28;20748;-60
2023/01/18 00:32:32;;;;;;;8.93;7.75;;;3.40;99.90;;;;;;5046807;28;20187;-60
2023/01/18 00:34:59;;;;;;;10.40;7.40;;;3.50;99.90;;;;;;5049171;28;20555;-61
2023/01/18 00:37:25;;;;;;;9.00;7.75;;;3.30;99.90;;;;;;5046550;28;20206;-62
2023/01/18 00:39:51;;;;;;;8.80;7.63;;;3.40;99.90;;;;;;5049153;28;20195;-60
2023/01/18 00:45:01;;;;;;;8.90;7.25;;;2.60;99.90;;;;;;5042781;28;20280;-62
2023/01/18 00:47:27;;;;;;;10.70;8.13;;;3.40;99.90;;;;;;5046942;28;20195;-62
2023/01/18 00:49:52;;;;;;;9.17;7.50;;;3.20;99.90;;;;;;5048869;28;20966;-62
2023/01/18 00:52:18;;;;;;;8.37;6.90;;;3.10;99.90;;;;;;5050168;28;20792;-60
2023/01/18 00:54:44;;;;;;;10.70;8.53;;;3.40;99.90;;;;;;5043368;28;20221;-62
2023/01/18 00:57:10;;;;;;;9.13;7.57;;;3.30;99.90;;;;;;5048803;28;20497;-61
2023/01/18 00:59:35;;;;;;;8.77;7.57;;;3.20;99.90;;;;;;5039734;28;20186;-61
2023/01/18 01:02:01;;;;;;;10.60;8.77;;;3.40;99.90;;;;;;5044522;28;20283;-61
2023/01/18 01:07:11;;;;;;;11.90;9.00;;;3.30;99.90;;;;;;5047586;28;20388;-61
2023/01/18 01:09:36;;;;;;;11.37;9.13;;;3.50;99.90;;;;;;5043897;28;20293;-62
2023/01/18 01:26:04;;;;;;;12.63;9.40;;;3.20;99.90;;;;;;5040427;28;20245;-62
2023/01/18 01:28:30;;;;;;;10.95;8.60;;;3.10;99.90;;;;;;5043668;28;20186;-60
2023/01/18 01:30:58;;;;;;;11.60;9.50;;;3.60;99.90;;;;;;5045466;28;20259;-62
2023/01/18 01:33:24;;;;;;;12.10;9.20;;;2.90;99.90;;;;;;5044206;28;20182;-62
2023/01/18 01:35:57;;;;;;;12.70;9.57;;;3.70;99.90;;;;;;5045537;28;20252;-62
2023/01/18 01:38:23;;;;;;;13.32;9.57;;;3.30;99.90;;;;;;5040676;28;20171;-62
2023/01/18 01:41:06;;;;;;;12.10;9.25;;;2.90;99.90;;;;;;5043846;28;20248;-62
2023/01/18 01:43:40;;;;;;;9.82;8.70;;;3.40;99.90;;;;;;5042843;28;20197;-62
2023/01/18 01:46:51;;;;;;;10.23;8.20;;;3.30;99.90;;;;;;5045823;28;20205;-62
2023/01/18 01:49:25;;;;;;;11.75;9.88;;;3.40;99.90;;;;;;4997665;28;20196;-62
2023/01/18 01:52:10;;;;;;;9.55;8.55;;;3.50;99.90;;;;;;5002202;28;20249;-62
2023/01/18 01:54:50;;;;;;;11.57;9.57;;;3.40;99.90;;;;;;5027750;28;20645;-60
2023/01/18 01:57:29;;;;;;;13.30;9.48;;;3.40;99.90;;;;;;5045857;28;20192;-61
2023/01/18 02:00:00;;;;;;;11.07;8.43;;;3.40;99.90;;;;;;5039809;28;20602;-62
2023/01/18 02:02:26;;;;;;;11.10;8.88;;;3.30;99.90;;;;;;5041462;28;20182;-59
2023/01/18 02:04:54;;;;;;;10.93;9.55;;;2.70;99.90;;;;;;5046938;28;20210;-62
2023/01/18 02:07:22;;;;;;;10.68;8.82;;;3.30;99.90;;;;;;5041678;28;21008;-61
2023/01/18 02:09:50;;;;;;;9.65;7.68;;;3.20;99.90;;;;;;5044804;28;20182;-61
2023/01/18 02:12:15;;;;;;;10.77;8.48;;;3.20;99.90;;;;;;5041867;28;20181;-61
2023/01/18 02:14:41;;;;;;;10.47;8.40;;;2.90;99.90;;;;;;5043744;28;20199;-62
2023/01/18 02:17:45;;;;;;;11.80;8.70;;;3.30;99.90;;;;;;5040792;28;20444;-62
2023/01/18 02:20:52;;;;;;;9.90;7.35;;;3.40;99.90;;;;;;5043862;28;20197;-62
2023/01/18 02:23:31;;;;;;;10.18;8.43;;;3.20;99.90;;;;;;5033117;28;20197;-62
2023/01/18 02:25:59;;;;;;;11.55;8.85;;;3.00;99.90;;;;;;5044256;28;20690;-61
2023/01/18 02:28:40;;;;;;;10.57;8.05;;;3.10;99.90;;;;;;5042367;28;20221;-62
2023/01/18 02:31:25;;;;;;;11.57;8.70;;;2.40;99.90;;;;;;5038879;28;20229;-62
2023/01/18 02:34:23;;;;;;;13.15;9.32;;;3.10;99.90;;;;;;5046186;28;20186;-62
2023/01/18 02:37:03;;;;;;;11.13;9.60;;;2.80;99.90;;;;;;5045751;28;20181;-62
2023/01/18 02:39:37;;;;;;;12.95;9.85;;;3.00;99.90;;;;;;5050662;28;20208;-62
2023/01/18 02:47:45;;;;;;;11.68;8.65;;;3.10;99.90;;;;;;5042152;28;20730;-62
2023/01/18 02:50:20;;;;;;;11.10;8.65;;;3.10;99.90;;;;;;5044836;28;20217;-62
2023/01/18 02:52:46;;;;;;;11.32;9.00;;;2.60;99.90;;;;;;5050010;28;20278;-62
2023/01/18 02:55:32;;;;;;;12.80;8.60;;;3.60;99.90;;;;;;5043595;28;20676;-61
2023/01/18 02:58:15;;;;;;;12.77;9.13;;;2.70;99.90;;;;;;5050018;28;20181;-60
2023/01/18 03:00:46;;;;;;;14.90;9.13;;;2.90;99.90;;;;;;5048056;28;20757;-60
2023/01/18 03:03:13;;;;;;;14.40;11.00;;;2.90;99.90;;;;;;5047999;28;20191;-60
2023/01/18 03:05:40;;;;;;;14.25;10.13;;;3.20;99.90;;;;;;5047960;28;20214;-61
2023/01/18 03:08:26;;;;;;;15.07;10.48;;;2.50;99.90;;;;;;5053891;28;20186;-61
2023/01/18 03:11:01;;;;;;;14.07;10.70;;;2.50;99.90;;;;;;5047787;28;20222;-60
2023/01/18 03:13:48;;;;;;;12.30;8.93;;;3.10;99.90;;;;;;5053385;28;20181;-60
2023/01/18 03:16:23;;;;;;;12.13;8.65;;;2.60;99.90;;;;;;5044315;28;20213;-60
2023/01/18 03:19:03;;;;;;;12.95;10.60;;;3.00;99.90;;;;;;5053451;28;22302;-60
2023/01/18 03:21:50;;;;;;;12.88;8.88;;;3.40;99.90;;;;;;5049164;28;20658;-60
2023/01/18 03:24:17;;;;;;;11.45;9.15;;;2.80;99.90;;;;;;5041741;28;20540;-62
2023/01/18 03:26:51;;;;;;;12.70;10.10;;;2.80;99.90;;;;;;5046626;28;20732;-62
2023/01/18 03:35:09;;;;;;;12.32;8.70;;;2.70;99.90;;;;;;5043701;28;20217;-62
2023/01/18 03:37:39;;;;;;;13.38;9.60;;;2.90;99.90;;;;;;5044748;28;20178;-62
2023/01/18 03:40:14;;;;;;;13.00;9.60;;;2.60;99.90;;;;;;5045721;28;20220;-59
2023/01/18 03:42:48;;;;;;;14.15;10.02;;;2.80;99.90;;;;;;5047992;28;20177;-61
2023/01/18 03:45:29;;;;;;;11.65;9.43;;;3.00;99.90;;;;;;5042495;28;20216;-61
2023/01/18 03:47:55;;;;;;;12.20;9.85;;;2.90;99.90;;;;;;5041173;28;20674;-61
2023/01/18 03:50:34;;;;;;;11.33;9.00;;;2.40;99.90;;;;;;5044162;28;20234;-61
2023/01/18 03:53:05;;;;;;;12.68;9.93;;;2.80;99.90;;;;;;5046544;28;20189;-61
2023/01/18 03:55:41;;;;;;;11.82;8.32;;;2.60;99.90;;;;;;5045395;28;20707;-61
2023/01/18 03:58:11;;;;;;;12.75;10.18;;;2.70;99.90;;;;;;5048253;28;20981;-61
2023/01/18 04:00:38;;;;;;;10.85;7.95;;;2.40;99.90;;;;;;5046812;28;20192;-61
2023/01/18 04:03:04;;;;;;;11.40;8.70;;;3.00;99.90;;;;;;5046794;28;20206;-62
2023/01/18 04:05:30;;;;;;;12.18;9.40;;;2.50;99.90;;;;;;5040857;28;20312;-61
2023/01/18 04:07:56;;;;;;;13.83;9.17;;;2.40;99.90;;;;;;5047909;28;20632;-59
2023/01/18 04:10:22;;;;;;;13.80;9.90;;;2.40;99.90;;;;;;5048018;28;20826;-60
2023/01/18 04:12:47;;;;;;;12.97;8.93;;;2.80;99.90;;;;;;5047989;28;20528;-59
2023/01/18 04:15:13;;;;;;;13.87;10.70;;;3.30;99.90;;;;;;5039075;28;20954;-61
2023/01/18 04:17:39;;;;;;;14.87;11.10;;;2.90;99.90;;;;;;5044554;28;20209;-60
2023/01/18 04:20:05;;;;;;;12.13;9.03;;;2.80;99.90;;;;;;5046165;28;20191;-61
2023/01/18 04:22:30;;;;;;;13.05;10.23;;;2.70;99.90;;;;;;5048846;28;20213;-60
2023/01/18 04:24:56;;;;;;;13.83;10.27;;;3.00;99.90;;;;;;5043247;28;20249;-60
2023/01/18 04:27:23;;;;;;;13.40;9.73;;;2.50;99.90;;;;;;5043648;28;20196;-60
2023/01/18 04:29:49;;;;;;;13.65;10.23;;;3.40;99.90;;;;;;5044011;28;20191;-61
2023/01/18 04:32:15;;;;;;;14.40;11.13;;;3.10;99.90;;;;;;5048316;28;20201;-60
2023/01/18 04:34:40;;;;;;;14.10;11.20;;;2.70;99.90;;;;;;5046612;28;20221;-60
2023/01/18 04:37:06;;;;;;;12.83;9.87;;;2.90;99.90;;;;;;5048927;28;20180;-60
2023/01/18 04:39:31;;;;;;;12.27;9.33;;;2.80;99.90;;;;;;5047816;28;20281;-60
2023/01/18 04:41:57;;;;;;;14.27;10.63;;;3.30;99.90;;;;;;5047801;28;20240;-60
2023/01/18 04:44:22;;;;;;;14.33;10.53;;;2.90;99.90;;;;;;5044033;28;20195;-60
2023/01/18 04:46:48;;;;;;;14.50;10.50;;;2.80;99.90;;;;;;5042634;28;20201;-60
2023/01/18 04:49:15;;;;;;;13.53;10.13;;;3.30;99.90;;;;;;5048788;28;20190;-60
2023/01/18 04:51:42;;;;;;;14.75;11.30;;;3.30;99.90;;;;;;5046608;28;20197;-60
2023/01/18 04:54:09;;;;;;;12.35;10.02;;;2.50;99.90;;;;;;5041707;28;20195;-60
2023/01/18 04:56:35;;;;;;;14.65;10.20;;;2.30;99.90;;;;;;5046690;28;20203;-60
2023/01/18 04:59:01;;;;;;;12.30;9.90;;;2.60;99.90;;;;;;5047509;28;20254;-60
2023/01/18 05:01:28;;;;;;;15.53;10.50;;;2.40;99.90;;;;;;5039792;28;20197;-59
2023/01/18 05:03:54;;;;;;;14.15;10.30;;;2.70;99.90;;;;;;5048422;28;20372;-60
2023/01/18 05:06:20;;;;;;;11.80;9.70;;;2.80;99.90;;;;;;5045806;28;20724;-60
2023/01/18 05:08:45;;;;;;;11.33;8.97;;;2.30;99.90;;;;;;5043667;28;20800;-61
2023/01/18 05:11:13;;;;;;;14.93;10.20;;;2.10;99.90;;;;;;5044574;28;20472;-60
2023/01/18 05:13:39;;;;;;;12.32;9.70;;;2.80;99.90;;;;;;5043121;28;20612;-60
2023/01/18 05:16:06;;;;;;;10.82;9.57;;;2.30;99.90;;;;;;5038355;28;20316;-60
2023/01/18 05:18:32;;;;;;;13.57;9.80;;;2.00;99.90;;;;;;5043631;28;20237;-60
2023/01/18 05:20:58;;;;;;;10.73;9.50;;;2.50;99.90;;;;;;5039741;28;20210;-60
2023/01/18 05:23:23;;;;;;;10.43;9.10;;;2.80;99.90;;;;;;5041089;28;20442;-60
2023/01/18 05:25:56;;;;;;;10.23;8.43;;;2.60;99.90;;;;;;5044705;28;20217;-61
2023/01/18 05:28:23;;;;;;;10.45;9.32;;;2.50;99.90;;;;;;5039575;28;20187;-60
2023/01/18 05:30:49;;;;;;;12.07;9.00;;;2.30;99.90;;;;;;5039336;28;20209;-61
2023/01/18 05:33:16;;;;;;;8.97;7.47;;;2.00;99.90;;;;;;5043804;28;20187;-61
2023/01/18 05:35:47;;;;;;;10.02;7.45;;;2.40;99.90;;;;;;5037015;28;20468;-61
2023/01/18 05:38:12;;;;;;;7.40;6.07;;;1.80;99.90;;;;;;5039884;28;20185;-61
2023/01/18 05:40:38;;;;;;;7.70;6.90;;;2.40;99.90;;;;;;5038982;28;20216;-61
2023/01/18 05:43:03;;;;;;;6.53;5.93;;;3.00;99.90;;;;;;5039613;28;20198;-61
2023/01/18 05:45:29;;;;;;;9.20;6.33;;;2.50;99.90;;;;;;5044087;28;20213;-61
2023/01/18 05:47:54;;;;;;;7.70;6.53;;;2.20;99.90;;;;;;5042323;28;20220;-61
2023/01/18 05:50:20;;;;;;;7.90;6.20;;;2.80;99.90;;;;;;5047520;28;20212;-60
2023/01/18 05:52:45;;;;;;;7.40;6.50;;;2.50;99.90;;;;;;5047104;28;20193;-61
2023/01/18 05:55:12;;;;;;;6.53;5.80;;;2.30;99.90;;;;;;5042717;28;20252;-61
2023/01/18 05:57:38;;;;;;;7.07;6.37;;;2.30;99.90;;;;;;5044646;28;20582;-60
2023/01/18 06:00:04;;;;;;;5.50;5.00;;;2.40;99.90;;;;;;5044823;28;20194;-59
2023/01/18 06:02:30;;;;;;;6.53;5.25;;;2.40;99.90;;;;;;5047172;28;20183;-60
2023/01/18 06:04:55;;;;;;;5.53;5.03;;;2.40;99.90;;;;;;5044604;28;20270;-60
2023/01/18 06:07:21;;;;;;;6.87;6.03;;;2.50;99.90;;;;;;5045841;28;20220;-61
2023/01/18 06:09:46;;;;;;;6.20;5.60;;;2.30;99.90;;;;;;5045531;28;20186;-61
2023/01/18 06:12:12;;;;;;;6.20;5.33;;;2.60;99.90;;;;;;5047323;28;20186;-61
2023/01/18 06:14:37;;;;;;;6.27;5.67;;;2.30;99.90;;;;;;5044975;28;20196;-59
2023/01/18 06:17:03;;;;;;;8.57;7.70;;;2.30;99.90;;;;;;5044452;28;20190;-60
2023/01/18 06:19:29;;;;;;;6.90;6.20;;;1.90;99.90;;;;;;5048421;28;20173;-67
2023/01/18 06:21:54;;;;;;;6.47;5.87;;;2.50;99.90;;;;;;5032710;28;20193;-67
2023/01/18 06:24:20;;;;;;;10.13;5.87;;;2.70;99.90;;;;;;5046165;28;20185;-61
2023/01/18 06:26:45;;;;;;;6.10;5.43;;;2.70;99.90;;;;;;5050716;28;20190;-61
2023/01/18 06:29:11;;;;;;;7.07;5.90;;;2.70;99.90;;;;;;5046521;28;20609;-62
2023/01/18 06:31:37;;;;;;;6.60;5.90;;;2.90;99.90;;;;;;5044520;28;20232;-63
2023/01/18 06:34:08;;;;;;;7.37;6.23;;;2.60;99.90;;;;;;5047614;28;20520;-62
2023/01/18 06:36:37;;;;;;;6.47;5.22;;;2.70;99.90;;;;;;5046945;28;20276;-62
2023/01/18 06:39:03;;;;;;;5.65;5.00;;;2.70;99.90;;;;;;5038957;28;20257;-64
2023/01/18 06:41:29;;;;;;;6.20;5.60;;;2.90;99.90;;;;;;5044098;28;21104;-59
2023/01/18 06:43:55;;;;;;;6.20;4.90;;;2.80;99.90;;;;;;5047535;28;20287;-59
2023/01/18 06:46:21;;;;;;;7.43;6.43;;;2.90;99.90;;;;;;5039597;28;20950;-60
2023/01/18 06:48:47;;;;;;;7.03;5.67;;;2.80;99.90;;;;;;5043905;28;20190;-60
2023/01/18 06:51:13;;;;;;;8.73;6.75;;;3.10;99.90;;;;;;5046844;28;20213;-59
2023/01/18 06:53:38;;;;;;;6.53;5.80;;;2.40;99.90;;;;;;5041257;28;20232;-59
2023/01/18 06:56:09;;;;;;;7.00;5.40;;;2.80;99.90;;;;;;5047300;28;20477;-59
2023/01/18 06:58:35;;;;;;;9.13;5.72;;;2.80;99.90;;;;;;5047545;28;20428;-61
2023/01/18 07:01:01;;;;;;;7.38;6.18;;;2.30;99.90;;;;;;5036932;28;20303;-59
2023/01/18 07:03:28;;;;;;;9.80;7.53;;;2.50;99.90;;;;;;5041652;28;20659;-61
2023/01/18 07:05:55;;;;;;;7.50;6.70;;;2.40;99.90;;;;;;5042414;28;20245;-61
2023/01/18 07:08:22;;;;;;;8.38;7.28;;;2.80;99.90;;;;;;5043006;28;20201;-63
2023/01/18 07:10:48;;;;;;;9.38;7.38;;;3.00;99.90;;;;;;5043448;28;20208;-63
2023/01/18 07:13:14;;;;;;;9.43;7.85;;;3.00;99.90;;;;;;5044260;28;20187;-63
2023/01/18 07:15:40;;;;;;;9.57;7.73;;;3.30;99.90;;;;;;5035196;28;20209;-61
2023/01/18 07:18:06;;;;;;;8.80;7.20;;;2.80;99.90;;;;;;5042844;28;20563;-63
2023/01/18 07:20:31;;;;;;;9.70;7.83;;;2.90;99.90;;;;;;5040430;28;20240;-63
2023/01/18 07:22:57;;;;;;;8.03;7.17;;;3.00;99.90;;;;;;5044987;28;20188;-64
2023/01/18 07:25:23;;;;;;;8.83;7.97;;;3.00;99.90;;;;;;5041892;28;20210;-64
2023/01/18 07:27:48;;;;;;;8.33;7.13;;;2.90;99.90;;;;;;5040948;28;21044;-60
2023/01/18 07:30:15;;;;;;;8.60;7.70;;;3.00;99.90;;;;;;5042185;28;20487;-62
2023/01/18 07:32:49;;;;;;;8.35;7.28;;;3.00;99.90;;;;;;5035517;28;20236;-62
2023/01/18 07:35:16;;;;;;;8.15;6.32;;;2.50;99.90;;;;;;5044514;28;20207;-60
2023/01/18 07:37:41;;;;;;;10.55;8.80;;;2.90;99.90;;;;;;5046210;28;20188;-63
2023/01/18 07:40:09;;;;;;;7.70;6.90;;;2.60;99.90;;;;;;5043935;28;20676;-63
2023/01/18 07:42:35;;;;;;;7.22;6.40;;;2.80;99.90;;;;;;5038846;28;20325;-64
2023/01/18 07:45:00;;;;;;;10.30;8.00;;;2.60;99.90;;;;;;5043001;28;20635;-64
2023/01/18 07:47:26;;;;;;;7.93;6.60;;;2.30;99.90;;;;;;5048514;28;21759;-61
2023/01/18 07:49:51;;;;;;;12.47;7.73;;;2.60;99.90;;;;;;5049385;28;20216;-64
2023/01/18 07:52:17;;;;;;;9.53;7.40;;;2.80;99.90;;;;;;5048559;28;20183;-63
2023/01/18 07:54:42;;;;;;;10.17;6.80;;;2.60;99.90;;;;;;5049407;28;20673;-62
2023/01/18 07:57:08;;;;;;;7.43;6.73;;;2.90;99.90;;;;;;5050557;28;20254;-64
2023/01/18 07:59:33;;;;;;;8.57;7.10;;;2.70;99.90;;;;;;5049678;28;20186;-63
2023/01/18 08:01:59;;;;;;;9.63;7.40;;;2.70;99.90;;;;;;5050774;28;20182;-63
2023/01/18 08:04:24;;;;;;;8.60;7.80;;;2.70;99.90;;;;;;5045292;28;20218;-65
2023/01/18 08:06:50;;;;;;;8.50;6.93;;;2.30;99.90;;;;;;5048965;28;20525;-63
2023/01/18 08:09:16;;;;;;;8.23;6.80;;;2.80;99.90;;;;;;5049757;28;20196;-63
2023/01/18 08:11:41;;;;;;;11.67;8.93;;;2.70;99.90;;;;;;5047233;28;20227;-65
2023/01/18 08:14:07;;;;;;;9.37;7.50;;;2.50;99.90;;;;;;5044569;28;20186;-66
2023/01/18 08:16:33;;;;;;;9.80;8.00;;;2.80;99.90;;;;;;5047096;28;20197;-65
2023/01/18 08:18:58;;;;;;;13.67;7.60;;;2.10;99.90;;;;;;5045306;28;20178;-66
2023/01/18 08:21:24;;;;;;;7.93;7.13;;;2.80;99.90;;;;;;5040239;28;20186;-73
2023/01/18 08:23:52;;;;;;;7.27;6.57;;;2.20;99.90;;;;;;5054101;28;20193;-70
2023/01/18 08:26:18;;;;;;;7.30;6.43;;;2.90;99.90;;;;;;5044337;28;20221;-62
2023/01/18 08:28:43;;;;;;;8.10;6.83;;;2.00;99.90;;;;;;5038269;28;20189;-62
2023/01/18 08:31:18;;;;;;;8.03;6.80;;;2.70;99.90;;;;;;5042491;28;20297;-61
2023/01/18 08:33:46;;;;;;;8.00;7.20;;;2.60;99.90;;;;;;5054035;28;20212;-69
2023/01/18 08:36:15;;;;;;;8.00;7.10;;;2.70;99.90;;;;;;5048743;28;20221;-70
2023/01/18 08:38:40;;;;;;;8.77;6.25;;;2.60;99.90;;;;;;5048926;28;20658;-69
2023/01/18 08:41:06;;;;;;;8.23;7.33;;;2.30;99.90;;;;;;5049142;28;20191;-62
2023/01/18 08:43:32;;;;;;;8.50;6.40;;;2.20;99.90;;;;;;5046189;28;20249;-69
2023/01/18 08:45:58;;;;;;;7.83;6.80;;;3.00;99.90;;;;;;5045952;28;20313;-70
2023/01/18 08:48:23;;;;;;;9.30;8.25;;;2.40;99.90;;;;;;5047504;28;20190;-71
2023/01/18 08:50:49;;;;;;;10.17;9.17;;;3.20;99.90;;;;;;5052407;28;20209;-71
2023/01/18 08:53:14;;;;;;;8.93;8.03;;;3.60;99.90;;;;;;5047654;28;20174;-64
2023/01/18 08:55:40;;;;;;;7.70;6.90;;;3.10;99.90;;;;;;5042243;28;20240;-63
2023/01/18 08:58:06;;;;;;;10.53;7.80;;;3.30;99.90;;;;;;5047625;28;20180;-64
2023/01/18 09:00:32;;;;;;;9.97;6.60;;;3.20;99.90;;;;;;5037713;28;20191;-62
2023/01/18 09:02:58;;;;;;;8.60;6.60;;;2.90;99.90;;;;;;5049668;28;20519;-61
2023/01/18 09:05:25;;;;;;;7.53;6.45;;;3.00;99.90;;;;;;5041421;28;20456;-61
2023/01/18 09:07:53;;;;;;;6.88;6.10;;;2.80;99.90;;;;;;5045242;28;20183;-65
2023/01/18 09:10:20;;;;;;;8.18;6.55;;;3.10;99.90;;;;;;5035949;28;20206;-62
2023/01/18 09:12:46;;;;;;;6.90;6.30;;;3.00;99.90;;;;;;5043870;28;20550;-63
2023/01/18 09:15:12;;;;;;;6.95;6.22;;;3.30;99.90;;;;;;5042654;28;20202;-62
2023/01/18 09:17:37;;;;;;;7.50;6.80;;;2.60;99.90;;;;;;5045362;28;20184;-62
2023/01/18 09:20:08;;;;;;;8.13;6.33;;;3.30;99.90;;;;;;5043525;28;21024;-62
2023/01/18 09:22:37;;;;;;;6.80;6.10;;;3.40;99.90;;;;;;5046872;28;20185;-63
2023/01/18 09:25:04;;;;;;;7.75;6.75;;;3.50;99.90;;;;;;5042673;28;20256;-62
2023/01/18 09:27:30;;;;;;;8.57;6.15;;;3.30;99.90;;;;;;5047089;28;20233;-62
2023/01/18 09:29:56;;;;;;;7.40;6.00;;;3.30;99.90;;;;;;5045443;28;20223;-62
2023/01/18 09:32:22;;;;;;;7.00;5.73;;;3.60;99.90;;;;;;5047362;28;21052;-62
2023/01/18 09:34:49;;;;;;;7.47;5.90;;;3.30;99.90;;;;;;5044158;28;20460;-65
2023/01/18 09:37:16;;;;;;;6.45;5.85;;;3.70;99.90;;;;;;5043711;28;20182;-63
2023/01/18 09:39:42;;;;;;;6.45;5.75;;;2.80;99.90;;;;;;5044725;28;20694;-63
2023/01/18 09:42:20;;;;;;;7.63;6.00;;;3.40;99.90;;;;;;5041326;28;20199;-61
2023/01/18 09:44:50;;;;;;;6.57;5.68;;;3.50;99.90;;;;;;5041756;28;20708;-66
2023/01/18 09:47:38;;;;;;;6.97;6.13;;;3.60;99.90;;;;;;5045356;28;20207;-65
2023/01/18 09:50:14;;;;;;;9.13;6.93;;;3.40;99.90;;;;;;5045389;28;20188;-65
2023/01/18 09:52:55;;;;;;;7.28;6.57;;;3.40;99.90;;;;;;5041090;28;20181;-68
2023/01/18 09:55:51;;;;;;;7.00;5.72;;;3.40;99.90;;;;;;5046134;28;20202;-65
2023/01/18 09:58:31;;;;;;;8.25;5.93;;;3.40;99.90;;;;;;5049829;28;20225;-64
2023/01/18 10:01:05;;;;;;;5.97;5.30;;;3.60;99.90;;;;;;5040759;28;20559;-64
2023/01/18 10:03:38;;;;;;;7.63;6.53;;;3.50;99.90;;;;;;5046158;28;20283;-64
2023/01/18 10:06:16;;;;;;;6.95;6.25;;;3.60;99.90;;;;;;5040129;28;20290;-64
2023/01/18 10:08:55;;;;;;;6.50;5.85;;;3.30;99.90;;;;;;5046146;28;20490;-63
2023/01/18 10:11:30;;;;;;;7.70;6.95;;;3.70;99.90;;;;;;5055001;28;20743;-63
2023/01/18 10:14:22;;;;;;;6.93;6.28;;;3.50;99.90;;;;;;5044379;28;21593;-63
2023/01/18 10:16:55;;;;;;;6.30;5.70;;;3.20;99.90;;;;;;5041007;28;20207;-64
2023/01/18 10:19:27;;;;;;;6.97;5.88;;;3.90;99.90;;;;;;5040352;28;20266;-64
2023/01/18 10:22:15;;;;;;;6.63;5.95;;;3.50;99.90;;;;;;5042529;28;20183;-63
2023/01/18 10:25:07;;;;;;;6.90;6.20;;;3.30;99.90;;;;;;5044934;28;20270;-63
2023/01/18 10:28:24;;;;;;;6.50;5.80;;;3.30;99.90;;;;;;5053286;28;20226;-63
2023/01/18 10:31:15;;;;;;;7.47;6.32;;;3.40;99.90;;;;;;5041642;28;20705;-63
2023/01/18 10:33:43;;;;;;;7.93;4.95;;;3.70;99.90;;;;;;5045036;28;20239;-62
2023/01/18 10:36:17;;;;;;;7.30;6.20;;;3.40;99.90;;;;;;5042225;28;20339;-62
2023/01/18 10:38:44;;;;;;;7.22;5.93;;;3.50;99.90;;;;;;5040785;28;20210;-63
2023/01/18 10:41:24;;;;;;;7.50;6.55;;;3.80;99.90;;;;;;5044215;28;20220;-63
2023/01/18 10:43:50;;;;;;;7.20;6.50;;;3.60;99.90;;;;;;5039514;28;20226;-63
2023/01/18 10:46:18;;;;;;;7.28;6.57;;;3.50;99.90;;;;;;5041539;28;20997;-62
2023/01/18 10:48:47;;;;;;;6.45;5.85;;;3.40;99.90;;;;;;5038930;28;20841;-63
2023/01/18 10:51:37;;;;;;;7.60;6.82;;;3.20;99.90;;;;;;5041366;28;20208;-63
2023/01/18 10:54:20;;;;;;;6.70;6.00;;;3.70;99.90;;;;;;5037945;28;20574;-62
2023/01/18 10:56:47;;;;;;;6.43;5.72;;;3.60;99.90;;;;;;5044720;28;20266;-62
2023/01/18 10:59:29;;;;;;;7.68;6.18;;;3.90;99.90;;;;;;5046235;28;20194;-61
2023/01/18 11:01:56;;;;;;;6.60;5.95;;;3.70;99.90;;;;;;5037662;28;20242;-62
2023/01/18 11:04:28;;;;;;;8.27;6.20;;;3.70;99.90;;;;;;5044660;28;20217;-64
2023/01/18 11:06:56;;;;;;;7.53;6.25;;;3.40;99.90;;;;;;5039850;28;20192;-63
2023/01/18 11:09:45;;;;;;;9.02;5.57;;;3.70;99.90;;;;;;5038767;28;20183;-64
2023/01/18 11:12:46;;;;;;;9.05;6.47;;;3.60;99.90;;;;;;5048151;28;20206;-64
2023/01/18 11:15:21;;;;;;;7.50;6.32;;;3.80;99.90;;;;;;5044385;28;20590;-63
2023/01/18 11:17:49;;;;;;;7.82;6.00;;;3.80;99.90;;;;;;5048475;28;20589;-64
2023/01/18 11:20:16;;;;;;;6.93;6.20;;;3.40;99.90;;;;;;5049840;28;20201;-62
2023/01/18 11:23:13;;;;;;;9.15;7.90;;;3.50;99.90;;;;;;5052277;28;20190;-64
2023/01/18 11:26:04;;;;;;;7.78;5.85;;;3.20;99.90;;;;;;5041843;28;20345;-64
2023/01/18 11:28:38;;;;;;;8.18;6.38;;;3.80;99.90;;;;;;5051942;28;20808;-63
2023/01/18 11:31:17;;;;;;;14.48;6.90;;;3.70;99.90;;;;;;5043591;28;20211;-61
2023/01/18 11:33:57;;;;;;;6.95;6.20;;;3.80;99.90;;;;;;5041132;28;20577;-67
2023/01/18 11:36:42;;;;;;;6.07;5.30;;;4.10;99.90;;;;;;5039877;28;20211;-65
2023/01/18 11:39:35;;;;;;;6.82;4.97;;;3.80;99.90;;;;;;5046963;28;20224;-64
2023/01/18 11:42:10;;;;;;;11.48;6.93;;;3.70;99.90;;;;;;5041285;28;20183;-63
2023/01/18 11:44:43;;;;;;;5.70;5.10;;;3.70;99.90;;;;;;5043855;28;20267;-62
2023/01/18 11:47:15;;;;;;;8.18;6.13;;;3.00;99.90;;;;;;5065959;28;20684;-63
2023/01/18 11:49:43;;;;;;;7.03;6.32;;;3.70;99.90;;;;;;5038099;28;20204;-64
2023/01/18 11:52:22;;;;;;;8.48;5.63;;;3.90;99.90;;;;;;5048437;28;20210;-67
2023/01/18 11:54:54;;;;;;;6.35;5.50;;;3.90;99.90;;;;;;5045745;28;20208;-67
2023/01/18 11:57:20;;;;;;;7.00;5.95;;;3.40;99.90;;;;;;5048198;28;20183;-65
2023/01/18 11:59:47;;;;;;;6.97;4.77;;;3.70;99.90;;;;;;5046279;28;20187;-64
2023/01/18 12:02:22;;;;;;;6.15;5.55;;;4.10;99.90;;;;;;5045903;28;20186;-63
2023/01/18 12:05:06;;;;;;;5.95;4.90;;;4.20;99.90;;;;;;5047199;28;20264;-63
2023/01/18 12:07:49;;;;;;;5.53;5.03;;;4.00;99.90;;;;;;5049200;28;20694;-63
2023/01/18 12:10:22;;;;;;;6.47;5.00;;;4.00;99.90;;;;;;5042119;28;20565;-63
2023/01/18 12:13:31;;;;;;;6.35;4.78;;;4.20;99.90;;;;;;5044891;28;20250;-64
2023/01/18 12:16:34;;;;;;;5.78;4.53;;;3.90;99.90;;;;;;5043539;28;20694;-64
2023/01/18 12:19:25;;;;;;;6.80;4.70;;;4.20;99.90;;;;;;5042893;28;20213;-64
2023/01/18 12:22:02;;;;;;;5.15;4.65;;;4.50;99.90;;;;;;5043027;28;20215;-64
2023/01/18 12:24:43;;;;;;;8.95;5.60;;;4.20;99.90;;;;;;5047436;28;20275;-64
2023/01/18 12:27:19;;;;;;;12.43;4.70;;;4.40;99.90;;;;;;5047832;28;20231;-63
2023/01/18 12:29:56;;;;;;;9.02;5.50;;;4.40;99.90;;;;;;5040070;28;20180;-63
2023/01/18 12:32:45;;;;;;;7.35;4.85;;;4.70;99.90;;;;;;5047871;28;20282;-63
2023/01/18 12:35:41;;;;;;;5.45;4.95;;;4.70;99.90;;;;;;5044219;28;20217;-63
2023/01/18 12:38:27;;;;;;;5.90;5.00;;;4.60;99.90;;;;;;5039841;28;20191;-63
2023/01/18 12:41:14;;;;;;;4.82;4.40;;;4.60;99.90;;;;;;5051022;28;20231;-64
2023/01/18 12:43:55;;;;;;;5.45;4.38;;;4.60;99.90;;;;;;5046235;28;20191;-63
2023/01/18 12:46:30;;;;;;;6.68;5.25;;;4.70;99.90;;;;;;5037016;28;20229;-64
2023/01/18 12:49:00;;;;;;;5.90;4.63;;;4.40;99.90;;;;;;5037996;28;20690;-62
2023/01/18 12:51:32;;;;;;;5.40;4.90;;;3.80;99.90;;;;;;5046212;28;21653;-63
2023/01/18 12:54:04;;;;;;;4.65;4.22;;;4.10;99.90;;;;;;5040932;28;20190;-66
2023/01/18 12:56:43;;;;;;;9.13;5.20;;;4.50;99.90;;;;;;5043110;28;20625;-64
2023/01/18 12:59:30;;;;;;;4.20;3.78;;;4.70;99.90;;;;;;5046493;28;20594;-64
2023/01/18 13:02:03;;;;;;;5.70;4.43;;;4.40;99.90;;;;;;5037375;28;20792;-65
2023/01/18 13:04:38;;;;;;;7.57;4.63;;;4.10;99.90;;;;;;5048257;28;20549;-65
2023/01/18 13:07:11;;;;;;;6.78;4.50;;;3.70;99.90;;;;;;5048367;28;20186;-65
2023/01/18 13:09:42;;;;;;;8.82;4.95;;;4.40;99.90;;;;;;5042845;28;20180;-62
2023/01/18 13:12:09;;;;;;;8.07;6.10;;;4.30;99.90;;;;;;5038796;28;20283;-60
2023/01/18 13:15:06;;;;;;;6.18;4.70;;;4.60;99.90;;;;;;5046150;28;20215;-60
2023/01/18 13:17:40;;;;;;;5.45;4.35;;;4.80;99.90;;;;;;5045171;28;20227;-61
2023/01/18 13:20:15;;;;;;;5.82;4.90;;;4.50;99.90;;;;;;5047096;28;20211;-61
2023/01/18 13:22:41;;;;;;;6.43;4.00;;;4.50;99.90;;;;;;5048597;28;20549;-60
2023/01/18 13:25:30;;;;;;;9.70;4.70;;;4.80;99.90;;;;;;5044004;28;20209;-60
2023/01/18 13:28:00;;;;;;;7.72;4.70;;;4.60;99.90;;;;;;5047201;28;20184;-60
2023/01/18 13:30:27;;;;;;;7.10;4.35;;;4.50;99.90;;;;;;5044085;28;20220;-60
2023/01/18 13:32:53;;;;;;;5.70;4.22;;;4.70;99.90;;;;;;5041925;28;20539;-61
2023/01/18 13:35:32;;;;;;;6.50;4.70;;;4.70;99.90;;;;;;5043382;28;20211;-61
2023/01/18 13:38:09;;;;;;;6.68;4.38;;;4.20;99.90;;;;;;5043617;28;20437;-61
2023/01/18 13:40:41;;;;;;;4.93;4.00;;;4.60;99.90;;;;;;5042936;28;20194;-61
2023/01/18 13:43:40;;;;;;;5.18;4.03;;;4.50;99.90;;;;;;5044556;28;20183;-63
2023/01/18 13:46:05;;;;;;;4.32;3.65;;;4.20;99.90;;;;;;5020905;28;20743;-60